Time;durP1;ratioP1;P1;durP2;ratioP2;P2;SDS_P1;SDS_P2;PMS_P1;PMS_P2;Temp;Humidity;BMP_temperature;BMP_pressure;BME280_temperature;BME280_humidity;BME280_pressure;Samples;Min_cycle;Max_cycle;Signal;HPM_P1;HPM_P2
2023/08/17 00:02:12;;;;;;;5.50;3.97;;;;;;;;;;5061496;28;20020;-87
2023/08/17 00:04:38;;;;;;;4.32;3.20;;;;;;;;;;5045289;28;20059;-88
2023/08/17 00:07:05;;;;;;;6.25;3.50;;;;;;;;;;5045567;28;20123;-89
2023/08/17 00:09:31;;;;;;;4.80;3.50;;;;;;;;;;5048992;28;20044;-89
2023/08/17 00:11:57;;;;;;;5.43;3.55;;;;;;;;;;5068636;28;20024;-89
2023/08/17 00:14:23;;;;;;;7.82;3.67;;;;;;;;;;5049556;28;20075;-89
2023/08/17 00:16:52;;;;;;;5.18;3.85;;;;;;;;;;5052854;28;20021;-89
2023/08/17 00:19:21;;;;;;;7.63;3.50;;;;;;;;;;5051059;28;20031;-88
2023/08/17 00:21:47;;;;;;;7.40;4.20;;;;;;;;;;5053529;28;20029;-88
2023/08/17 00:24:13;;;;;;;4.70;3.30;;;;;;;;;;5067505;28;20035;-88
2023/08/17 00:26:39;;;;;;;8.07;3.70;;;;;;;;;;5046511;28;20068;-87
2023/08/17 00:29:05;;;;;;;10.43;4.35;;;;;;;;;;5069676;28;20491;-89
2023/08/17 00:31:31;;;;;;;6.30;4.05;;;;;;;;;;5050883;28;20052;-89
2023/08/17 00:33:57;;;;;;;7.75;4.15;;;;;;;;;;5046701;28;20112;-88
2023/08/17 00:36:23;;;;;;;6.32;3.60;;;;;;;;;;5049458;28;20461;-88
2023/08/17 00:38:49;;;;;;;9.73;3.30;;;;;;;;;;5056966;28;20025;-88
2023/08/17 00:41:15;;;;;;;10.73;3.42;;;;;;;;;;5049501;28;20078;-87
2023/08/17 00:43:41;;;;;;;5.50;3.55;;;;;;;;;;5055129;28;20465;-87
2023/08/17 00:46:07;;;;;;;7.85;3.55;;;;;;;;;;5056586;28;20079;-88
2023/08/17 00:48:34;;;;;;;14.07;4.68;;;;;;;;;;5046770;28;20043;-88
2023/08/17 00:51:00;;;;;;;8.15;3.88;;;;;;;;;;5067623;28;20183;-88
2023/08/17 00:53:28;;;;;;;8.05;4.45;;;;;;;;;;5069846;28;20025;-88
2023/08/17 00:55:54;;;;;;;8.40;3.67;;;;;;;;;;5049877;28;20021;-88
2023/08/17 00:58:21;;;;;;;5.70;3.78;;;;;;;;;;5049717;28;20032;-88
2023/08/17 01:00:47;;;;;;;6.97;3.45;;;;;;;;;;5064863;28;20096;-88
2023/08/17 01:03:14;;;;;;;4.57;3.45;;;;;;;;;;5050024;28;20028;-88
2023/08/17 01:05:40;;;;;;;5.38;3.35;;;;;;;;;;5062488;28;20032;-88
2023/08/17 01:08:06;;;;;;;9.40;4.18;;;;;;;;;;5053568;28;20040;-88
2023/08/17 01:10:38;;;;;;;15.73;4.28;;;;;;;;;;5055033;28;20020;-89
2023/08/17 01:13:11;;;;;;;9.77;4.28;;;;;;;;;;5069057;28;20033;-89
2023/08/17 01:15:39;;;;;;;6.22;3.38;;;;;;;;;;5067788;28;20467;-89
2023/08/17 01:18:17;;;;;;;5.30;4.28;;;;;;;;;;5049769;28;20031;-89
2023/08/17 01:20:44;;;;;;;4.82;3.78;;;;;;;;;;5053136;28;20218;-89
2023/08/17 01:23:10;;;;;;;7.93;4.10;;;;;;;;;;5057998;28;20021;-88
2023/08/17 01:25:38;;;;;;;4.53;3.70;;;;;;;;;;5050404;28;20025;-89
2023/08/17 01:28:05;;;;;;;6.88;3.50;;;;;;;;;;5057201;28;20059;-87
2023/08/17 01:30:34;;;;;;;8.02;4.28;;;;;;;;;;5042055;28;20056;-89
2023/08/17 01:33:07;;;;;;;6.68;4.50;;;;;;;;;;5043944;28;20066;-88
2023/08/17 01:35:33;;;;;;;5.32;4.10;;;;;;;;;;5047386;28;20105;-89
2023/08/17 01:38:00;;;;;;;5.03;4.03;;;;;;;;;;5049288;28;20029;-88
2023/08/17 01:40:28;;;;;;;6.15;3.90;;;;;;;;;;5046455;28;20017;-88
2023/08/17 01:42:55;;;;;;;8.60;3.90;;;;;;;;;;5063429;28;20027;-88
2023/08/17 01:45:21;;;;;;;3.95;3.08;;;;;;;;;;5049020;28;20021;-89
2023/08/17 01:47:49;;;;;;;6.45;4.07;;;;;;;;;;5050734;28;20452;-88
2023/08/17 01:50:15;;;;;;;5.18;3.60;;;;;;;;;;5050694;28;20032;-88
2023/08/17 01:52:41;;;;;;;7.95;3.50;;;;;;;;;;5049167;28;20035;-88
2023/08/17 01:55:08;;;;;;;5.68;3.60;;;;;;;;;;5050224;28;20021;-89
2023/08/17 01:57:35;;;;;;;5.03;3.30;;;;;;;;;;5049352;28;20029;-88
2023/08/17 02:00:01;;;;;;;4.28;3.13;;;;;;;;;;5055242;28;20142;-89
2023/08/17 02:02:27;;;;;;;4.80;3.03;;;;;;;;;;5066644;28;20023;-89
2023/08/17 02:04:53;;;;;;;7.57;3.05;;;;;;;;;;5057280;28;20029;-89
2023/08/17 02:07:19;;;;;;;5.75;3.05;;;;;;;;;;5045864;28;20040;-89
2023/08/17 02:09:45;;;;;;;3.47;2.95;;;;;;;;;;5049164;28;20465;-88
2023/08/17 02:12:11;;;;;;;4.28;2.97;;;;;;;;;;5058045;28;20040;-89
2023/08/17 02:14:37;;;;;;;4.60;2.85;;;;;;;;;;5045576;28;20025;-89
2023/08/17 02:17:05;;;;;;;5.40;3.33;;;;;;;;;;5044567;28;20017;-88
2023/08/17 02:19:31;;;;;;;4.28;3.22;;;;;;;;;;5067991;28;20024;-89
2023/08/17 02:21:57;;;;;;;5.28;2.80;;;;;;;;;;5047957;28;20062;-89
2023/08/17 02:24:23;;;;;;;4.55;3.22;;;;;;;;;;5047214;28;20059;-88
2023/08/17 02:26:49;;;;;;;6.03;3.30;;;;;;;;;;5045279;28;20569;-88
2023/08/17 02:29:15;;;;;;;5.10;3.30;;;;;;;;;;5049694;28;20048;-88
2023/08/17 02:31:41;;;;;;;4.15;3.30;;;;;;;;;;5047762;28;20044;-88
2023/08/17 02:34:07;;;;;;;6.30;3.38;;;;;;;;;;5050719;28;20031;-89
2023/08/17 02:36:34;;;;;;;7.32;3.03;;;;;;;;;;5048811;28;20491;-88
2023/08/17 02:39:00;;;;;;;4.65;3.33;;;;;;;;;;5049231;28;20118;-89
2023/08/17 02:41:26;;;;;;;6.70;3.17;;;;;;;;;;5044892;28;20021;-89
2023/08/17 02:43:52;;;;;;;4.28;3.20;;;;;;;;;;5049729;28;20025;-89
2023/08/17 02:46:18;;;;;;;6.63;3.42;;;;;;;;;;5047113;28;20033;-89
2023/08/17 02:48:44;;;;;;;8.35;2.50;;;;;;;;;;5049813;28;20028;-89
2023/08/17 02:51:10;;;;;;;5.55;3.10;;;;;;;;;;5054729;28;20044;-88
2023/08/17 02:53:36;;;;;;;4.07;2.92;;;;;;;;;;5064347;28;20029;-89
2023/08/17 02:56:02;;;;;;;3.05;2.10;;;;;;;;;;5054905;28;20028;-89
2023/08/17 02:58:28;;;;;;;4.78;3.13;;;;;;;;;;5047694;28;20029;-89
2023/08/17 03:00:54;;;;;;;5.68;3.20;;;;;;;;;;5043937;28;20610;-89
2023/08/17 03:03:20;;;;;;;5.63;2.80;;;;;;;;;;5047834;28;20031;-87
2023/08/17 03:05:46;;;;;;;4.05;3.08;;;;;;;;;;5052023;28;20484;-89
2023/08/17 03:08:12;;;;;;;6.85;2.83;;;;;;;;;;5048343;28;20056;-87
2023/08/17 03:10:38;;;;;;;3.78;2.95;;;;;;;;;;5064823;28;20025;-88
2023/08/17 03:13:04;;;;;;;4.47;3.13;;;;;;;;;;5051618;28;20399;-88
2023/08/17 03:15:30;;;;;;;4.05;2.70;;;;;;;;;;5051751;28;20078;-88
2023/08/17 03:17:56;;;;;;;6.00;3.00;;;;;;;;;;5047073;28;20012;-89
2023/08/17 03:20:22;;;;;;;5.63;2.75;;;;;;;;;;5050286;28;20468;-88
2023/08/17 03:22:48;;;;;;;4.15;2.75;;;;;;;;;;5047157;28;20047;-87
2023/08/17 03:25:14;;;;;;;6.60;2.75;;;;;;;;;;5047494;28;20031;-88
2023/08/17 03:27:40;;;;;;;4.47;2.92;;;;;;;;;;5048844;28;20118;-88
2023/08/17 03:30:07;;;;;;;3.47;2.63;;;;;;;;;;5051486;28;20028;-89
2023/08/17 03:32:33;;;;;;;5.03;2.85;;;;;;;;;;5054629;28;20027;-88
2023/08/17 03:34:59;;;;;;;5.25;3.28;;;;;;;;;;5044339;28;20021;-88
2023/08/17 03:37:25;;;;;;;5.00;3.17;;;;;;;;;;5046992;28;20094;-89
2023/08/17 03:39:51;;;;;;;7.18;3.05;;;;;;;;;;5043210;28;20373;-87
2023/08/17 03:42:17;;;;;;;3.95;2.72;;;;;;;;;;5045984;28;20032;-88
2023/08/17 03:44:43;;;;;;;8.85;2.83;;;;;;;;;;5046997;28;20027;-88
2023/08/17 03:47:09;;;;;;;3.80;2.85;;;;;;;;;;5044260;28;20075;-88
2023/08/17 03:49:35;;;;;;;10.90;2.75;;;;;;;;;;5046850;28;20019;-89
2023/08/17 03:52:01;;;;;;;4.30;2.70;;;;;;;;;;5045731;28;20025;-88
2023/08/17 03:54:27;;;;;;;6.97;3.28;;;;;;;;;;5050973;28;20029;-88
2023/08/17 03:56:53;;;;;;;8.68;2.92;;;;;;;;;;5054564;28;20017;-89
2023/08/17 03:59:19;;;;;;;11.05;3.10;;;;;;;;;;5053232;28;20020;-89
2023/08/17 04:01:45;;;;;;;5.13;2.90;;;;;;;;;;5053372;28;20025;-88
2023/08/17 04:04:11;;;;;;;4.10;3.17;;;;;;;;;;5050659;28;20055;-88
2023/08/17 04:06:39;;;;;;;4.95;2.80;;;;;;;;;;5053704;28;20053;-88
2023/08/17 04:09:05;;;;;;;5.15;2.90;;;;;;;;;;5053904;28;20115;-88
2023/08/17 04:11:31;;;;;;;5.25;2.63;;;;;;;;;;5053298;28;20039;-88
2023/08/17 04:13:57;;;;;;;6.60;3.17;;;;;;;;;;5052130;28;20536;-88
2023/08/17 04:16:23;;;;;;;5.75;3.45;;;;;;;;;;5053379;28;20107;-88
2023/08/17 04:18:49;;;;;;;5.75;3.05;;;;;;;;;;5050960;28;20024;-88
2023/08/17 04:21:15;;;;;;;3.38;2.40;;;;;;;;;;5052976;28;20451;-89
2023/08/17 04:23:41;;;;;;;4.20;2.70;;;;;;;;;;5054070;28;20051;-88
2023/08/17 04:26:07;;;;;;;4.10;2.70;;;;;;;;;;5056025;28;20025;-88
2023/08/17 04:28:34;;;;;;;7.25;2.55;;;;;;;;;;5060014;28;20397;-88
2023/08/17 04:31:00;;;;;;;4.10;2.83;;;;;;;;;;5063845;28;20067;-88
2023/08/17 04:33:26;;;;;;;4.22;3.00;;;;;;;;;;5046222;28;20060;-88
2023/08/17 04:35:52;;;;;;;5.07;2.90;;;;;;;;;;5070576;28;20631;-87
2023/08/17 04:38:18;;;;;;;8.02;2.97;;;;;;;;;;5070046;28;20473;-88
2023/08/17 04:40:44;;;;;;;7.82;4.07;;;;;;;;;;5072767;28;20075;-88
2023/08/17 04:43:11;;;;;;;7.50;3.30;;;;;;;;;;5056203;28;20043;-88
2023/08/17 04:45:37;;;;;;;9.38;2.85;;;;;;;;;;5046053;28;20021;-88
2023/08/17 04:48:03;;;;;;;4.43;3.05;;;;;;;;;;5051554;28;20028;-87
2023/08/17 04:50:29;;;;;;;4.53;3.10;;;;;;;;;;5067835;28;20025;-88
2023/08/17 04:52:55;;;;;;;6.00;3.58;;;;;;;;;;5043737;28;20108;-87
2023/08/17 04:55:21;;;;;;;6.20;3.10;;;;;;;;;;5055324;28;20115;-87
2023/08/17 04:57:47;;;;;;;3.40;2.72;;;;;;;;;;5048521;28;20504;-87
2023/08/17 05:00:14;;;;;;;5.43;2.75;;;;;;;;;;5049581;28;20016;-87
2023/08/17 05:02:40;;;;;;;11.20;3.10;;;;;;;;;;5065387;28;20024;-88
2023/08/17 05:05:07;;;;;;;3.60;2.90;;;;;;;;;;5047116;28;20021;-88
2023/08/17 05:07:33;;;;;;;6.60;2.75;;;;;;;;;;5041560;28;20385;-88
2023/08/17 05:09:59;;;;;;;6.32;2.83;;;;;;;;;;5051181;28;20070;-88
2023/08/17 05:12:25;;;;;;;4.40;3.15;;;;;;;;;;5049311;28;20021;-88
2023/08/17 05:14:51;;;;;;;5.93;3.20;;;;;;;;;;5050709;28;20024;-87
2023/08/17 05:17:20;;;;;;;6.10;3.20;;;;;;;;;;5050911;28;20025;-89
2023/08/17 05:19:46;;;;;;;7.18;3.80;;;;;;;;;;5051797;28;20025;-87
2023/08/17 05:22:13;;;;;;;6.53;3.00;;;;;;;;;;5052378;28;20541;-88
2023/08/17 05:24:39;;;;;;;5.45;2.70;;;;;;;;;;5068618;28;20019;-87
2023/08/17 05:27:05;;;;;;;4.55;3.30;;;;;;;;;;5042902;28;20151;-88
2023/08/17 05:29:32;;;;;;;11.63;3.92;;;;;;;;;;5037054;28;20025;-88
2023/08/17 05:32:00;;;;;;;8.38;3.55;;;;;;;;;;5046031;28;20103;-87
2023/08/17 05:34:26;;;;;;;5.07;2.97;;;;;;;;;;5062207;28;20029;-88
2023/08/17 05:36:52;;;;;;;4.82;3.15;;;;;;;;;;5047929;28;20102;-88
2023/08/17 05:39:19;;;;;;;5.88;3.17;;;;;;;;;;5042475;28;20035;-88
2023/08/17 05:41:45;;;;;;;3.70;2.97;;;;;;;;;;5044225;28;20480;-88
2023/08/17 05:44:15;;;;;;;5.93;3.00;;;;;;;;;;5048159;28;20029;-87
2023/08/17 05:46:42;;;;;;;9.73;3.47;;;;;;;;;;5051887;28;20029;-88
2023/08/17 05:49:09;;;;;;;11.15;3.25;;;;;;;;;;5071469;28;20062;-88
2023/08/17 05:51:35;;;;;;;4.70;3.00;;;;;;;;;;5043988;28;20032;-88
2023/08/17 05:54:01;;;;;;;4.22;3.10;;;;;;;;;;5046376;28;20025;-89
2023/08/17 05:56:28;;;;;;;7.72;2.78;;;;;;;;;;5044476;28;20082;-88
2023/08/17 05:58:54;;;;;;;4.70;3.08;;;;;;;;;;5046422;28;20048;-88
2023/08/17 06:01:20;;;;;;;5.75;3.25;;;;;;;;;;5051012;28;20033;-88
2023/08/17 06:03:46;;;;;;;3.42;2.72;;;;;;;;;;5051348;28;20017;-87
2023/08/17 06:06:13;;;;;;;4.97;3.33;;;;;;;;;;5051640;28;20329;-87
2023/08/17 06:08:39;;;;;;;4.75;3.42;;;;;;;;;;5047301;28;20013;-88
2023/08/17 06:11:05;;;;;;;3.67;2.22;;;;;;;;;;5050717;28;20599;-87
2023/08/17 06:13:31;;;;;;;5.28;3.22;;;;;;;;;;5038362;28;20020;-88
2023/08/17 06:15:57;;;;;;;5.55;3.05;;;;;;;;;;5047406;28;20111;-87
2023/08/17 06:18:23;;;;;;;5.93;2.90;;;;;;;;;;5046368;28;20117;-88
2023/08/17 06:20:53;;;;;;;4.32;3.25;;;;;;;;;;5050861;28;20016;-88
2023/08/17 06:23:20;;;;;;;8.32;3.13;;;;;;;;;;5047638;28;20507;-88
2023/08/17 06:25:46;;;;;;;4.30;3.08;;;;;;;;;;5042730;28;20025;-88
2023/08/17 06:28:12;;;;;;;4.75;2.92;;;;;;;;;;5045479;28;20036;-88
2023/08/17 06:30:38;;;;;;;9.50;3.95;;;;;;;;;;5046955;28;20024;-88
2023/08/17 06:33:04;;;;;;;9.05;4.65;;;;;;;;;;5061366;28;20048;-87
2023/08/17 06:35:31;;;;;;;12.95;6.75;;;;;;;;;;5045214;28;20028;-87
2023/08/17 06:37:57;;;;;;;10.70;6.40;;;;;;;;;;5050319;28;20016;-87
2023/08/17 06:40:24;;;;;;;10.85;6.10;;;;;;;;;;5051754;28;20054;-86
2023/08/17 06:42:52;;;;;;;9.70;4.45;;;;;;;;;;5063295;28;20021;-87
2023/08/17 06:45:18;;;;;;;7.38;4.30;;;;;;;;;;5043539;28;20052;-87
2023/08/17 06:47:45;;;;;;;10.48;6.68;;;;;;;;;;5046276;28;20040;-87
2023/08/17 06:50:11;;;;;;;20.52;7.60;;;;;;;;;;5045400;28;20029;-87
2023/08/17 06:52:38;;;;;;;10.43;7.38;;;;;;;;;;5060925;28;20540;-84
2023/08/17 06:55:04;;;;;;;14.50;6.40;;;;;;;;;;5060837;28;20021;-88
2023/08/17 06:57:31;;;;;;;18.27;6.75;;;;;;;;;;5054992;28;20114;-87
2023/08/17 06:59:57;;;;;;;8.82;5.93;;;;;;;;;;5039688;28;20032;-88
2023/08/17 07:02:23;;;;;;;10.00;5.00;;;;;;;;;;5049361;28;20035;-88
2023/08/17 07:04:49;;;;;;;7.13;5.07;;;;;;;;;;5043653;28;20019;-78
2023/08/17 07:07:15;;;;;;;11.50;4.85;;;;;;;;;;5063927;28;20066;-78
2023/08/17 07:09:41;;;;;;;12.60;5.60;;;;;;;;;;5059829;28;20472;-78
2023/08/17 07:12:07;;;;;;;10.15;5.78;;;;;;;;;;5059705;28;20043;-78
2023/08/17 07:14:33;;;;;;;7.45;5.18;;;;;;;;;;5061527;28;20024;-78
2023/08/17 07:17:00;;;;;;;7.20;4.97;;;;;;;;;;5058837;28;20052;-78
2023/08/17 07:19:26;;;;;;;7.53;4.32;;;;;;;;;;5060665;28;20107;-78
2023/08/17 07:21:53;;;;;;;7.18;4.50;;;;;;;;;;5064732;28;20048;-78
2023/08/17 07:24:19;;;;;;;9.05;5.25;;;;;;;;;;5067581;28;20024;-78
2023/08/17 07:26:45;;;;;;;5.45;3.83;;;;;;;;;;5041341;28;20036;-78
2023/08/17 07:29:11;;;;;;;17.92;4.68;;;;;;;;;;5063058;28;20033;-77
2023/08/17 07:31:37;;;;;;;9.38;5.47;;;;;;;;;;5059026;28;20059;-78
2023/08/17 07:34:06;;;;;;;12.18;4.75;;;;;;;;;;5055217;28;20025;-78
2023/08/17 07:36:33;;;;;;;10.38;5.35;;;;;;;;;;5060520;28;20083;-78
2023/08/17 07:38:59;;;;;;;12.90;5.30;;;;;;;;;;5060318;28;20024;-78
2023/08/17 07:41:25;;;;;;;11.85;5.75;;;;;;;;;;5062970;28;20066;-78
2023/08/17 07:43:51;;;;;;;10.73;5.63;;;;;;;;;;5056173;28;20029;-78
2023/08/17 07:46:17;;;;;;;8.05;4.97;;;;;;;;;;5040254;28;20032;-79
2023/08/17 07:48:43;;;;;;;15.80;5.32;;;;;;;;;;5060940;28;20393;-78
2023/08/17 07:51:09;;;;;;;6.78;4.88;;;;;;;;;;5060995;28;20070;-78
2023/08/17 07:53:35;;;;;;;7.25;4.68;;;;;;;;;;5055716;28;20029;-79
2023/08/17 07:56:01;;;;;;;11.38;4.72;;;;;;;;;;5044812;28;20078;-78
2023/08/17 07:58:27;;;;;;;7.35;5.07;;;;;;;;;;5049909;28;20021;-78
2023/08/17 08:00:53;;;;;;;7.25;4.05;;;;;;;;;;5043224;28;20017;-79
2023/08/17 08:03:19;;;;;;;6.10;4.57;;;;;;;;;;5058040;28;20025;-78
2023/08/17 08:05:45;;;;;;;11.00;5.57;;;;;;;;;;5055548;28;20053;-79
2023/08/17 08:08:11;;;;;;;9.43;4.95;;;;;;;;;;5053784;28;20032;-78
2023/08/17 08:10:37;;;;;;;11.45;4.80;;;;;;;;;;5063110;28;20025;-79
2023/08/17 08:13:03;;;;;;;12.35;4.80;;;;;;;;;;5064144;28;20086;-79
2023/08/17 08:15:29;;;;;;;6.43;4.30;;;;;;;;;;5061453;28;20020;-79
2023/08/17 08:17:55;;;;;;;6.03;3.63;;;;;;;;;;5057855;28;20664;-79
2023/08/17 08:20:21;;;;;;;8.32;4.78;;;;;;;;;;5056157;28;20032;-78
2023/08/17 08:22:47;;;;;;;11.68;5.55;;;;;;;;;;5057607;28;20052;-79
2023/08/17 08:25:13;;;;;;;6.65;4.85;;;;;;;;;;5061131;28;20025;-78
2023/08/17 08:27:39;;;;;;;8.18;4.20;;;;;;;;;;5060160;28;20763;-78
2023/08/17 08:30:06;;;;;;;6.78;4.35;;;;;;;;;;5053165;28;20595;-76
2023/08/17 08:32:35;;;;;;;9.23;5.35;;;;;;;;;;5058249;28;20021;-78
2023/08/17 08:35:09;;;;;;;7.72;4.95;;;;;;;;;;5060313;28;20019;-78
2023/08/17 08:37:35;;;;;;;10.10;4.80;;;;;;;;;;5061491;28;20025;-77
2023/08/17 08:40:01;;;;;;;15.77;4.78;;;;;;;;;;5058368;28;20040;-78
2023/08/17 08:42:27;;;;;;;10.77;5.40;;;;;;;;;;5044282;28;20016;-78
2023/08/17 08:44:53;;;;;;;11.43;5.57;;;;;;;;;;5064624;28;20103;-78
2023/08/17 08:47:19;;;;;;;10.63;5.72;;;;;;;;;;5068134;28;20036;-78
2023/08/17 08:50:01;;;;;;;13.82;6.05;;;;;;;;;;5068292;28;20028;-78
2023/08/17 08:52:32;;;;;;;11.40;5.63;;;;;;;;;;5058226;28;20499;-79
2023/08/17 08:54:59;;;;;;;8.07;5.53;;;;;;;;;;5061003;28;20029;-78
2023/08/17 08:57:28;;;;;;;11.65;5.38;;;;;;;;;;5064081;28;20032;-78
2023/08/17 08:59:54;;;;;;;6.15;4.90;;;;;;;;;;5062871;28;20048;-78
2023/08/17 09:02:20;;;;;;;7.43;4.72;;;;;;;;;;5063709;28;20025;-78
2023/08/17 09:04:49;;;;;;;7.63;4.82;;;;;;;;;;5065937;28;20031;-78
2023/08/17 09:07:17;;;;;;;12.07;5.40;;;;;;;;;;5060710;28;20044;-78
2023/08/17 09:09:45;;;;;;;9.45;5.40;;;;;;;;;;5061502;28;20024;-79
2023/08/17 09:12:11;;;;;;;10.40;5.80;;;;;;;;;;5065163;28;20056;-78
2023/08/17 09:14:37;;;;;;;8.90;5.68;;;;;;;;;;5057363;28;20437;-78
2023/08/17 09:17:06;;;;;;;8.35;4.47;;;;;;;;;;5054361;28;20477;-78
2023/08/17 09:19:33;;;;;;;9.93;4.90;;;;;;;;;;5066915;28;20369;-79
2023/08/17 09:21:59;;;;;;;6.40;4.38;;;;;;;;;;5067506;28;20300;-78
2023/08/17 09:24:33;;;;;;;16.92;5.13;;;;;;;;;;5067286;28;20372;-77
2023/08/17 09:27:00;;;;;;;10.88;5.40;;;;;;;;;;5045985;28;20520;-79
2023/08/17 09:29:26;;;;;;;10.82;4.40;;;;;;;;;;5063037;28;20044;-78
2023/08/17 09:31:52;;;;;;;8.68;4.80;;;;;;;;;;5064119;28;20049;-78
2023/08/17 09:34:19;;;;;;;13.45;5.22;;;;;;;;;;5061620;28;20496;-78
2023/08/17 09:36:48;;;;;;;9.75;5.53;;;;;;;;;;5059428;28;20064;-78
2023/08/17 09:39:17;;;;;;;8.57;4.72;;;;;;;;;;5062529;28;20024;-78
2023/08/17 09:41:43;;;;;;;6.13;5.07;;;;;;;;;;5060021;28;20023;-78
2023/08/17 09:44:09;;;;;;;9.25;4.72;;;;;;;;;;5063280;28;20025;-78
2023/08/17 09:46:35;;;;;;;5.47;4.53;;;;;;;;;;5061090;28;20036;-79
2023/08/17 09:49:04;;;;;;;9.10;4.40;;;;;;;;;;5055217;28;20097;-79
2023/08/17 09:51:31;;;;;;;5.70;3.90;;;;;;;;;;5062414;28;20036;-78
2023/08/17 09:53:57;;;;;;;4.80;3.55;;;;;;;;;;5065725;28;20301;-78
2023/08/17 09:56:24;;;;;;;4.68;3.88;;;;;;;;;;5067286;28;20573;-80
2023/08/17 09:58:50;;;;;;;10.88;3.65;;;;;;;;;;5060455;28;20043;-79
2023/08/17 10:01:17;;;;;;;8.77;3.58;;;;;;;;;;5058259;28;20035;-79
2023/08/17 10:03:49;;;;;;;8.18;4.07;;;;;;;;;;5061246;28;20108;-79
2023/08/17 10:06:18;;;;;;;8.82;3.80;;;;;;;;;;5063063;28;20028;-79
2023/08/17 10:08:45;;;;;;;11.70;3.90;;;;;;;;;;5061955;28;20024;-80
2023/08/17 10:11:12;;;;;;;6.70;4.28;;;;;;;;;;5059161;28;20028;-79
2023/08/17 10:14:14;;;;;;;6.20;4.10;;;;;;;;;;5062641;28;20028;-80
2023/08/17 10:16:46;;;;;;;6.38;4.65;;;;;;;;;;5027778;28;20474;-79
2023/08/17 10:19:38;;;;;;;5.22;3.67;;;;;;;;;;5028862;28;20042;-80
2023/08/17 10:22:13;;;;;;;6.10;3.60;;;;;;;;;;5023977;28;20276;-79
2023/08/17 10:24:39;;;;;;;4.55;3.55;;;;;;;;;;5028618;28;20034;-78
2023/08/17 10:27:06;;;;;;;10.95;4.07;;;;;;;;;;5011105;28;20041;-79
2023/08/17 10:29:32;;;;;;;10.80;3.80;;;;;;;;;;5027518;28;20033;-80
2023/08/17 10:31:59;;;;;;;6.53;4.20;;;;;;;;;;5025289;28;20052;-79
2023/08/17 10:34:25;;;;;;;7.50;3.33;;;;;;;;;;5026955;28;20041;-79
2023/08/17 10:36:52;;;;;;;7.63;3.65;;;;;;;;;;5028516;28;20029;-79
2023/08/17 10:39:19;;;;;;;9.68;3.15;;;;;;;;;;5027264;28;20104;-80
2023/08/17 10:41:48;;;;;;;5.63;3.20;;;;;;;;;;5027448;28;20026;-80
2023/08/17 10:44:14;;;;;;;4.20;2.90;;;;;;;;;;5027806;28;20042;-78
2023/08/17 10:46:42;;;;;;;3.88;2.88;;;;;;;;;;5024210;28;20100;-79
2023/08/17 10:49:24;;;;;;;11.00;3.13;;;;;;;;;;5026436;28;20033;-78
2023/08/17 10:52:22;;;;;;;8.32;2.78;;;;;;;;;;5064355;28;20396;-79
2023/08/17 10:54:48;;;;;;;6.70;3.70;;;;;;;;;;5056655;28;20032;-79
2023/08/17 10:57:31;;;;;;;6.90;3.67;;;;;;;;;;5053616;28;20036;-79
2023/08/17 11:00:15;;;;;;;4.13;3.05;;;;;;;;;;5060000;28;20120;-79
2023/08/17 11:02:43;;;;;;;7.60;3.47;;;;;;;;;;5061000;28;20043;-79
2023/08/17 11:05:12;;;;;;;6.80;3.10;;;;;;;;;;5062956;28;20551;-78
2023/08/17 11:07:45;;;;;;;9.35;3.65;;;;;;;;;;5063302;28;20042;-78
2023/08/17 11:10:12;;;;;;;5.78;3.03;;;;;;;;;;5056382;28;20029;-78
2023/08/17 11:12:38;;;;;;;6.38;3.40;;;;;;;;;;5061098;28;20067;-78
2023/08/17 11:15:04;;;;;;;3.60;3.10;;;;;;;;;;5063602;28;20028;-79
2023/08/17 11:17:30;;;;;;;12.60;3.38;;;;;;;;;;5066555;28;20029;-79
2023/08/17 11:19:56;;;;;;;11.55;3.05;;;;;;;;;;5063987;28;20104;-79
2023/08/17 11:22:22;;;;;;;3.85;3.13;;;;;;;;;;5061523;28;20033;-80
2023/08/17 11:24:48;;;;;;;4.32;3.08;;;;;;;;;;5066396;28;20067;-79
2023/08/17 11:27:14;;;;;;;4.78;2.92;;;;;;;;;;5062603;28;20033;-79
2023/08/17 11:29:41;;;;;;;6.68;3.35;;;;;;;;;;5053767;28;20040;-80
2023/08/17 11:32:09;;;;;;;4.88;3.08;;;;;;;;;;5056579;28;20025;-79
2023/08/17 11:34:36;;;;;;;6.00;3.20;;;;;;;;;;5057101;28;20543;-78
2023/08/17 11:37:02;;;;;;;4.43;3.10;;;;;;;;;;5059110;28;20028;-79
2023/08/17 11:39:28;;;;;;;11.63;3.45;;;;;;;;;;5059376;28;20456;-79
2023/08/17 11:41:53;;;;;;;7.30;3.63;;;;;;;;;;5053198;28;20114;-78
2023/08/17 11:44:21;;;;;;;9.52;4.07;;;;;;;;;;5060897;28;20033;-80
2023/08/17 11:46:47;;;;;;;9.75;3.60;;;;;;;;;;5063546;28;20036;-80
2023/08/17 11:49:13;;;;;;;5.57;3.35;;;;;;;;;;5059466;28;20043;-81
2023/08/17 11:51:40;;;;;;;10.27;4.05;;;;;;;;;;5066428;28;20033;-80
2023/08/17 11:54:07;;;;;;;7.45;3.75;;;;;;;;;;5056122;28;20377;-80
2023/08/17 11:56:33;;;;;;;7.40;3.20;;;;;;;;;;5059909;28;20016;-79
2023/08/17 11:59:08;;;;;;;5.32;3.60;;;;;;;;;;5061109;28;20035;-80
2023/08/17 12:01:35;;;;;;;11.00;3.83;;;;;;;;;;5057443;28;20021;-80
2023/08/17 12:04:01;;;;;;;8.38;3.95;;;;;;;;;;5054102;28;20045;-80
2023/08/17 12:06:27;;;;;;;12.30;4.20;;;;;;;;;;5058051;28;20068;-79
2023/08/17 12:08:53;;;;;;;14.45;3.85;;;;;;;;;;5058630;28;20025;-79
2023/08/17 12:11:19;;;;;;;3.95;3.33;;;;;;;;;;5063109;28;20027;-79
2023/08/17 12:13:50;;;;;;;5.57;3.33;;;;;;;;;;5064198;28;20021;-80
2023/08/17 12:16:17;;;;;;;5.85;3.05;;;;;;;;;;5058051;28;20099;-79
2023/08/17 12:18:48;;;;;;;7.72;3.75;;;;;;;;;;5059864;28;20036;-79
2023/08/17 12:21:14;;;;;;;12.70;3.70;;;;;;;;;;5066120;28;20069;-79
2023/08/17 12:23:42;;;;;;;6.68;3.30;;;;;;;;;;5061204;28;20029;-80
2023/08/17 12:26:08;;;;;;;12.48;3.50;;;;;;;;;;5068871;28;20023;-81
2023/08/17 12:28:34;;;;;;;5.05;3.85;;;;;;;;;;5058883;28;20369;-80
2023/08/17 12:31:00;;;;;;;9.25;4.57;;;;;;;;;;5060573;28;20032;-79
2023/08/17 12:33:27;;;;;;;8.55;3.42;;;;;;;;;;5063612;28;20432;-79
2023/08/17 12:35:55;;;;;;;6.68;3.90;;;;;;;;;;5064152;28;20016;-79
2023/08/17 12:38:22;;;;;;;11.38;4.07;;;;;;;;;;5054320;28;20087;-79
2023/08/17 12:40:48;;;;;;;12.98;3.83;;;;;;;;;;5068598;28;20016;-80
2023/08/17 12:43:14;;;;;;;7.45;3.28;;;;;;;;;;5062293;28;20036;-79
2023/08/17 12:45:40;;;;;;;6.32;3.78;;;;;;;;;;5065434;28;20024;-79
2023/08/17 12:48:06;;;;;;;8.10;4.00;;;;;;;;;;5058248;28;20040;-80
2023/08/17 12:50:32;;;;;;;7.15;3.63;;;;;;;;;;5055033;28;20065;-78
2023/08/17 12:52:58;;;;;;;13.18;3.92;;;;;;;;;;5062321;28;20060;-78
2023/08/17 12:55:24;;;;;;;10.13;3.90;;;;;;;;;;5066850;28;20111;-79
2023/08/17 12:57:50;;;;;;;9.40;3.80;;;;;;;;;;5064082;28;20096;-77
2023/08/17 13:00:16;;;;;;;8.00;4.00;;;;;;;;;;5064949;28;20028;-78
2023/08/17 13:02:44;;;;;;;10.68;4.00;;;;;;;;;;5062436;28;20481;-79
2023/08/17 13:05:10;;;;;;;6.65;3.60;;;;;;;;;;5058871;28;20017;-78
2023/08/17 13:07:36;;;;;;;6.45;4.20;;;;;;;;;;5060005;28;20047;-79
2023/08/17 13:10:02;;;;;;;10.00;4.93;;;;;;;;;;5058541;28;20072;-78
2023/08/17 13:12:28;;;;;;;8.05;4.15;;;;;;;;;;5056587;28;20384;-78
2023/08/17 13:14:54;;;;;;;9.55;4.00;;;;;;;;;;5058898;28;20015;-78
2023/08/17 13:17:20;;;;;;;10.85;3.88;;;;;;;;;;5064213;28;20460;-78
2023/08/17 13:19:46;;;;;;;7.13;3.95;;;;;;;;;;5061447;28;20028;-78
2023/08/17 13:22:12;;;;;;;8.70;2.60;;;;;;;;;;5060042;28;20021;-80
2023/08/17 13:24:38;;;;;;;9.30;2.20;;;;;;;;;;5057396;28;20067;-82
2023/08/17 13:27:04;;;;;;;2.83;1.95;;;;;;;;;;5065887;28;20075;-80
2023/08/17 13:29:30;;;;;;;2.80;1.80;;;;;;;;;;5060991;28;20016;-81
2023/08/17 13:31:56;;;;;;;5.10;2.20;;;;;;;;;;5067627;28;20027;-81
2023/08/17 13:34:22;;;;;;;4.80;2.22;;;;;;;;;;5062581;28;20033;-79
2023/08/17 13:36:48;;;;;;;4.38;2.38;;;;;;;;;;5057128;28;20017;-81
2023/08/17 13:39:14;;;;;;;5.85;2.08;;;;;;;;;;5059800;28;20180;-79
2023/08/17 13:41:41;;;;;;;3.75;1.70;;;;;;;;;;5062434;28;20051;-79
2023/08/17 13:44:07;;;;;;;3.60;2.05;;;;;;;;;;5060644;28;20033;-80
2023/08/17 13:46:33;;;;;;;4.68;1.92;;;;;;;;;;5057753;28;20195;-77
2023/08/17 13:48:59;;;;;;;11.55;2.38;;;;;;;;;;5062190;28;20020;-81
2023/08/17 13:51:25;;;;;;;3.85;1.90;;;;;;;;;;5061773;28;20400;-80
2023/08/17 13:53:51;;;;;;;5.18;2.38;;;;;;;;;;5058388;28;20042;-80
2023/08/17 13:56:17;;;;;;;6.10;2.35;;;;;;;;;;5057437;28;20033;-80
2023/08/17 13:58:43;;;;;;;6.13;2.30;;;;;;;;;;5054792;28;20083;-78
2023/08/17 14:01:11;;;;;;;13.00;2.55;;;;;;;;;;5059144;28;20051;-80
2023/08/17 14:03:37;;;;;;;9.27;3.15;;;;;;;;;;5061944;28;20094;-80
2023/08/17 14:06:03;;;;;;;4.70;2.10;;;;;;;;;;5064242;28;20021;-78
2023/08/17 14:08:29;;;;;;;6.15;2.67;;;;;;;;;;5061787;28;20037;-78
2023/08/17 14:10:55;;;;;;;7.20;2.33;;;;;;;;;;5058138;28;20079;-79
2023/08/17 14:13:21;;;;;;;8.80;2.85;;;;;;;;;;5061582;28;20036;-79
2023/08/17 14:15:47;;;;;;;5.85;2.53;;;;;;;;;;5061215;28;20021;-79
2023/08/17 14:18:13;;;;;;;3.25;2.13;;;;;;;;;;5058379;28;20017;-80
2023/08/17 14:20:39;;;;;;;4.85;2.35;;;;;;;;;;5056992;28;20036;-80
2023/08/17 14:23:05;;;;;;;9.90;2.78;;;;;;;;;;5063702;28;20461;-78
2023/08/17 14:25:31;;;;;;;5.05;2.78;;;;;;;;;;5063893;28;20036;-79
2023/08/17 14:27:59;;;;;;;6.30;2.60;;;;;;;;;;5061570;28;20051;-80
2023/08/17 14:30:26;;;;;;;5.93;2.35;;;;;;;;;;5056081;28;20024;-79
2023/08/17 14:32:52;;;;;;;6.00;2.83;;;;;;;;;;5055929;28;20067;-81
2023/08/17 14:35:17;;;;;;;3.53;2.33;;;;;;;;;;5065346;28;20033;-79
2023/08/17 14:37:43;;;;;;;5.97;2.30;;;;;;;;;;5058693;28;20616;-77
2023/08/17 14:40:09;;;;;;;6.53;2.17;;;;;;;;;;5064226;28;20697;-80